createdAt,value
2023-01-19T00:00:55.374Z,15.27
2023-01-19T00:03:22.550Z,12.10
2023-01-19T00:05:49.948Z,14.73
2023-01-19T00:08:17.458Z,13.33
2023-01-19T00:10:51.004Z,14.13
2023-01-19T00:13:18.277Z,15.10
2023-01-19T00:15:45.499Z,14.07
2023-01-19T00:18:12.674Z,14.27
2023-01-19T00:20:41.124Z,14.43
2023-01-19T00:23:09.332Z,11.47
2023-01-19T00:25:42.255Z,13.43
2023-01-19T00:28:14.168Z,13.47
2023-01-19T00:30:42.216Z,15.57
2023-01-19T00:33:10.591Z,14.13
2023-01-19T00:35:37.843Z,13.57
2023-01-19T00:38:05.168Z,12.30
2023-01-19T00:40:32.389Z,13.40
2023-01-19T00:43:00.564Z,13.30
2023-01-19T00:45:28.200Z,14.17
2023-01-19T00:47:57.119Z,13.23
2023-01-19T00:50:26.692Z,11.53
2023-01-19T00:52:55.495Z,11.77
2023-01-19T00:55:23.191Z,13.77
2023-01-19T00:57:50.364Z,15.07
2023-01-19T01:00:22.135Z,13.67
2023-01-19T01:02:52.095Z,12.57
2023-01-19T01:05:20.594Z,12.20
2023-01-19T01:07:49.651Z,13.40
2023-01-19T01:10:28.410Z,14.37
2023-01-19T01:13:21.059Z,13.90
2023-01-19T01:15:44.126Z,14.07
2023-01-19T01:18:11.331Z,14.37
2023-01-19T01:20:38.551Z,17.10
2023-01-19T01:23:05.719Z,14.27
2023-01-19T01:25:37.717Z,13.40
2023-01-19T01:28:08.579Z,13.27
2023-01-19T01:30:39.920Z,12.83
2023-01-19T01:33:08.310Z,13.33
2023-01-19T01:35:35.468Z,13.47
2023-01-19T01:38:02.738Z,14.13
2023-01-19T01:40:29.971Z,12.90
2023-01-19T01:42:57.279Z,12.73
2023-01-19T01:45:34.795Z,13.53
2023-01-19T01:48:15.804Z,15.03
2023-01-19T01:51:20.588Z,14.83
2023-01-19T01:53:52.339Z,14.03
2023-01-19T01:56:24.341Z,15.27
2023-01-19T01:58:52.098Z,12.83
2023-01-19T02:01:37.756Z,15.43
2023-01-19T02:04:05.135Z,13.73
2023-01-19T02:06:32.322Z,12.67
2023-01-19T02:09:26.642Z,12.70
2023-01-19T02:12:13.253Z,11.70
2023-01-19T02:14:40.439Z,13.13
2023-01-19T02:17:07.857Z,13.03
2023-01-19T02:19:43.566Z,12.67
2023-01-19T02:22:24.426Z,15.20
2023-01-19T02:24:52.608Z,14.57
2023-01-19T02:27:20.609Z,16.47
2023-01-19T02:29:48.072Z,12.20
2023-01-19T02:32:15.373Z,13.17
2023-01-19T02:34:42.639Z,13.17
2023-01-19T02:37:14.888Z,13.30
2023-01-19T02:39:44.669Z,12.00
2023-01-19T02:42:33.569Z,11.17
2023-01-19T02:45:06.480Z,9.40
2023-01-19T02:47:45.618Z,10.83
2023-01-19T02:50:49.065Z,9.03
2023-01-19T02:53:42.604Z,8.63
2023-01-19T02:56:34.712Z,8.83
2023-01-19T02:59:49.293Z,9.03
2023-01-19T03:02:49.370Z,10.30
2023-01-19T03:05:57.834Z,7.67
2023-01-19T03:08:24.963Z,9.60
2023-01-19T03:10:58.069Z,6.50
2023-01-19T03:13:31.126Z,8.53
2023-01-19T03:16:12.958Z,8.47
2023-01-19T03:18:44.198Z,8.43
2023-01-19T03:21:14.926Z,6.83
2023-01-19T03:23:46.225Z,8.80
2023-01-19T03:26:24.435Z,7.07
2023-01-19T03:28:52.537Z,10.13
2023-01-19T03:31:24.411Z,7.17
2023-01-19T03:33:56.198Z,10.60
2023-01-19T03:36:42.714Z,8.40
2023-01-19T03:39:12.459Z,10.73
2023-01-19T03:41:42.893Z,8.93
2023-01-19T03:44:12.077Z,9.50
2023-01-19T03:46:40.141Z,9.07
2023-01-19T03:49:08.339Z,9.87
2023-01-19T03:51:37.561Z,10.37
2023-01-19T03:54:06.165Z,10.40
2023-01-19T03:56:33.521Z,10.63
2023-01-19T03:59:00.738Z,13.33
2023-01-19T04:01:28.407Z,12.17
2023-01-19T04:03:55.584Z,12.63
2023-01-19T04:06:22.796Z,11.90
2023-01-19T04:08:51.314Z,12.40
2023-01-19T04:11:18.817Z,11.63
2023-01-19T04:13:46.002Z,13.57
2023-01-19T04:16:13.452Z,15.37
2023-01-19T04:18:42.142Z,14.67
2023-01-19T04:21:09.402Z,12.47
2023-01-19T04:23:36.627Z,13.30
2023-01-19T04:26:06.089Z,13.27
2023-01-19T04:28:34.813Z,12.13
2023-01-19T04:31:02.031Z,12.53
2023-01-19T04:33:29.444Z,14.10
2023-01-19T04:35:57.064Z,12.97
2023-01-19T04:38:25.764Z,14.63
2023-01-19T04:40:54.200Z,14.23
2023-01-19T04:43:23.247Z,12.93
2023-01-19T04:45:50.961Z,14.30
2023-01-19T04:48:18.683Z,13.70
2023-01-19T04:50:46.193Z,13.70
2023-01-19T04:53:13.831Z,14.50
2023-01-19T04:55:41.111Z,15.07
2023-01-19T04:58:08.359Z,14.03
2023-01-19T05:00:36.148Z,15.20
2023-01-19T05:03:04.916Z,14.67
2023-01-19T05:05:33.130Z,14.03
2023-01-19T05:08:00.549Z,14.77
2023-01-19T05:10:27.902Z,14.03
2023-01-19T05:12:55.446Z,14.37
2023-01-19T05:15:22.700Z,15.03
2023-01-19T05:17:49.917Z,14.57
2023-01-19T05:20:17.341Z,15.13
2023-01-19T05:22:51.743Z,15.27
2023-01-19T05:25:19.357Z,15.53
2023-01-19T05:27:46.552Z,15.77
2023-01-19T05:30:14.173Z,14.67
2023-01-19T05:32:41.614Z,14.50
2023-01-19T05:35:09.623Z,17.40
2023-01-19T05:37:36.894Z,15.97
2023-01-19T05:40:04.773Z,16.43
2023-01-19T05:42:32.876Z,17.33
2023-01-19T05:45:00.440Z,19.10
2023-01-19T05:47:30.303Z,16.13
2023-01-19T05:49:58.195Z,16.43
2023-01-19T05:52:25.392Z,15.37
2023-01-19T05:54:54.983Z,15.73
2023-01-19T05:57:22.729Z,15.57
2023-01-19T05:59:49.977Z,17.00
2023-01-19T06:02:17.240Z,17.50
2023-01-19T06:04:44.884Z,16.07
2023-01-19T06:07:12.130Z,15.97
2023-01-19T06:09:39.321Z,18.03
2023-01-19T06:12:06.634Z,15.60
2023-01-19T06:14:33.814Z,16.50
2023-01-19T06:17:01.033Z,18.13
2023-01-19T06:19:28.193Z,17.23
2023-01-19T06:21:55.367Z,15.40
2023-01-19T06:24:23.081Z,16.10
2023-01-19T06:26:50.241Z,16.83
2023-01-19T06:29:18.290Z,17.17
2023-01-19T06:31:45.571Z,17.53
2023-01-19T06:34:12.813Z,17.43
2023-01-19T06:36:40.045Z,17.47
2023-01-19T06:39:07.203Z,16.57
2023-01-19T06:41:35.080Z,16.53
2023-01-19T06:44:02.729Z,16.77
2023-01-19T06:46:30.199Z,18.23
2023-01-19T06:48:57.610Z,17.37
2023-01-19T06:51:25.432Z,18.70
2023-01-19T06:53:52.631Z,17.47
2023-01-19T06:56:19.805Z,17.33
2023-01-19T06:58:48.277Z,18.67
2023-01-19T07:01:15.548Z,17.33
2023-01-19T07:03:42.782Z,18.27
2023-01-19T07:06:10.227Z,17.00
2023-01-19T07:08:38.405Z,18.00
2023-01-19T07:11:25.125Z,17.00
2023-01-19T07:13:57.066Z,20.60
2023-01-19T07:16:24.413Z,17.77
2023-01-19T07:18:51.745Z,15.13
2023-01-19T07:21:19.249Z,16.07
2023-01-19T07:23:53.175Z,15.93
2023-01-19T07:26:21.656Z,17.67
2023-01-19T07:28:49.531Z,16.70
2023-01-19T07:31:17.976Z,15.20
2023-01-19T07:33:46.001Z,15.70
2023-01-19T07:36:13.648Z,17.20
2023-01-19T07:38:40.934Z,16.50
2023-01-19T07:41:09.972Z,17.00
2023-01-19T07:43:37.299Z,16.37
2023-01-19T07:46:06.073Z,13.90
2023-01-19T07:48:33.356Z,14.50
2023-01-19T07:51:05.184Z,15.00
2023-01-19T07:53:32.866Z,15.07
2023-01-19T07:56:00.165Z,15.10
2023-01-19T07:58:27.706Z,13.93
2023-01-19T08:00:54.991Z,15.53
2023-01-19T08:03:22.664Z,14.00
2023-01-19T08:05:51.907Z,14.30
2023-01-19T08:08:20.103Z,13.83
2023-01-19T08:10:50.356Z,13.47
2023-01-19T08:13:17.799Z,13.53
2023-01-19T08:15:45.068Z,14.53
2023-01-19T08:18:14.649Z,15.43
2023-01-19T08:20:42.004Z,13.87
2023-01-19T08:23:09.531Z,12.27
2023-01-19T08:25:39.433Z,13.57
2023-01-19T08:28:08.589Z,15.27
2023-01-19T08:30:36.267Z,11.87
2023-01-19T08:33:07.970Z,12.50
2023-01-19T08:35:37.982Z,13.13
2023-01-19T08:38:06.661Z,12.67
2023-01-19T08:40:36.910Z,13.40
2023-01-19T08:43:07.815Z,13.83
2023-01-19T08:45:36.264Z,13.30
2023-01-19T08:48:04.479Z,12.77
2023-01-19T08:50:32.796Z,14.50
2023-01-19T08:53:02.186Z,12.23
2023-01-19T08:55:30.413Z,13.27
2023-01-19T08:57:59.996Z,12.63
2023-01-19T09:00:27.913Z,12.17
2023-01-19T09:02:56.518Z,11.53
2023-01-19T09:05:24.448Z,13.30
2023-01-19T09:07:51.685Z,14.03
2023-01-19T09:10:19.524Z,12.83
2023-01-19T09:12:46.948Z,12.50
2023-01-19T09:15:14.277Z,15.53
2023-01-19T09:17:44.580Z,12.10
2023-01-19T09:20:11.973Z,12.63
2023-01-19T09:22:39.783Z,11.97
2023-01-19T09:25:08.266Z,13.80
2023-01-19T09:27:35.790Z,13.33
2023-01-19T09:30:04.279Z,13.20
2023-01-19T09:32:31.551Z,11.47
2023-01-19T09:34:58.764Z,11.47
2023-01-19T09:37:25.951Z,12.53
2023-01-19T09:39:53.301Z,12.13
2023-01-19T09:42:46.892Z,14.13
2023-01-19T09:45:19.945Z,12.60
2023-01-19T09:47:49.117Z,14.03
2023-01-19T09:50:26.050Z,11.90
2023-01-19T09:53:01.342Z,13.20
2023-01-19T09:55:29.401Z,12.07
2023-01-19T09:57:56.835Z,12.37
2023-01-19T10:00:25.230Z,11.37
2023-01-19T10:02:58.560Z,12.17
2023-01-19T10:05:44.832Z,11.23
2023-01-19T10:08:26.962Z,11.27
2023-01-19T10:10:56.664Z,9.97
2023-01-19T10:13:39.194Z,11.43
2023-01-19T10:16:25.184Z,10.90
2023-01-19T10:18:56.765Z,10.40
2023-01-19T10:21:27.052Z,10.20
2023-01-19T10:24:00.077Z,11.67
2023-01-19T10:26:42.152Z,9.27
2023-01-19T10:29:27.988Z,9.30
2023-01-19T10:32:17.414Z,9.70
2023-01-19T10:34:44.649Z,10.47
2023-01-19T10:37:17.845Z,10.33
2023-01-19T10:39:47.164Z,8.97
2023-01-19T10:42:17.099Z,9.67
2023-01-19T10:44:47.837Z,8.67
2023-01-19T10:47:20.823Z,7.93
2023-01-19T10:49:48.927Z,8.47
2023-01-19T10:52:23.661Z,7.50
2023-01-19T10:54:51.120Z,9.00
2023-01-19T10:57:30.597Z,7.77
2023-01-19T10:59:58.498Z,10.20
2023-01-19T11:02:32.540Z,7.27
2023-01-19T11:05:20.965Z,8.30
2023-01-19T11:07:48.155Z,8.13
2023-01-19T11:10:20.702Z,9.27
2023-01-19T11:13:01.467Z,7.87
2023-01-19T11:15:52.379Z,8.87
2023-01-19T11:18:39.766Z,9.80
2023-01-19T11:21:10.459Z,10.07
2023-01-19T11:23:51.006Z,8.83
2023-01-19T11:26:40.662Z,10.03
2023-01-19T11:29:23.695Z,8.37
2023-01-19T11:31:52.351Z,8.67
2023-01-19T11:34:39.121Z,7.30
2023-01-19T11:37:28.804Z,9.03
2023-01-19T11:40:02.563Z,7.27
2023-01-19T11:42:33.225Z,7.60
2023-01-19T11:45:03.297Z,6.93
2023-01-19T11:47:49.139Z,6.70
2023-01-19T11:50:34.609Z,5.30
2023-01-19T11:53:11.246Z,7.80
2023-01-19T11:56:04.636Z,7.47
2023-01-19T11:58:36.597Z,4.87
2023-01-19T12:01:29.219Z,5.10
2023-01-19T12:04:05.317Z,5.80
2023-01-19T12:06:47.609Z,9.13
2023-01-19T12:09:22.224Z,5.70
2023-01-19T12:11:53.476Z,7.47
2023-01-19T12:14:34.891Z,9.33
2023-01-19T12:17:05.065Z,7.90
2023-01-19T12:19:55.126Z,8.10
2023-01-19T12:22:24.096Z,5.50
2023-01-19T12:25:19.972Z,6.63
2023-01-19T12:27:49.519Z,5.93
2023-01-19T12:30:26.497Z,5.60
2023-01-19T12:33:22.479Z,6.43
2023-01-19T12:36:12.013Z,5.20
2023-01-19T12:38:39.177Z,6.20
2023-01-19T12:41:15.480Z,5.93
2023-01-19T12:43:43.123Z,7.20
2023-01-19T12:46:29.100Z,6.50
2023-01-19T12:49:10.382Z,7.60
2023-01-19T12:51:38.013Z,5.17
2023-01-19T12:54:09.264Z,7.07
2023-01-19T12:56:38.259Z,5.43
2023-01-19T12:59:06.477Z,5.47
2023-01-19T13:01:33.786Z,5.07
2023-01-19T13:04:09.487Z,6.33
2023-01-19T13:06:48.964Z,7.93
2023-01-19T13:09:29.913Z,4.60
2023-01-19T13:12:13.536Z,6.33
2023-01-19T13:14:43.011Z,4.83
2023-01-19T13:17:50.075Z,5.30
2023-01-19T13:20:17.245Z,5.67
2023-01-19T13:22:49.930Z,5.30
2023-01-19T13:25:35.450Z,5.50
2023-01-19T13:28:09.069Z,5.40
2023-01-19T13:30:39.202Z,4.70
2023-01-19T13:33:21.216Z,6.37
2023-01-19T13:35:55.435Z,5.37
2023-01-19T13:38:25.794Z,4.67
2023-01-19T13:40:55.796Z,4.93
2023-01-19T13:43:30.469Z,5.53
2023-01-19T13:45:58.140Z,6.07
2023-01-19T13:48:25.679Z,5.53
2023-01-19T13:51:01.222Z,5.93
2023-01-19T13:53:29.802Z,5.13
2023-01-19T13:56:15.679Z,6.23
2023-01-19T13:58:42.909Z,6.07
2023-01-19T14:01:23.420Z,5.67
2023-01-19T14:03:52.338Z,5.47
2023-01-19T14:06:31.018Z,6.17
2023-01-19T14:09:19.307Z,7.80
2023-01-19T14:12:05.447Z,7.20
2023-01-19T14:14:33.185Z,8.50
2023-01-19T14:17:00.638Z,6.63
2023-01-19T14:19:28.418Z,8.83
2023-01-19T14:22:04.097Z,5.40
2023-01-19T14:24:33.100Z,8.83
2023-01-19T14:27:30.333Z,6.73
2023-01-19T14:30:19.252Z,7.47
2023-01-19T14:32:47.564Z,7.00
2023-01-19T14:35:24.799Z,5.40
2023-01-19T14:37:52.421Z,5.93
2023-01-19T14:40:22.326Z,7.10
2023-01-19T14:43:06.215Z,5.83
2023-01-19T14:45:37.237Z,4.37
2023-01-19T14:48:16.326Z,4.73
2023-01-19T14:50:57.639Z,5.80
2023-01-19T14:53:30.776Z,4.83
2023-01-19T14:56:04.573Z,6.10
2023-01-19T14:58:34.368Z,5.57
2023-01-19T15:01:02.392Z,5.70
2023-01-19T15:03:43.341Z,4.70
2023-01-19T15:06:20.167Z,5.67
2023-01-19T15:08:49.897Z,4.80
2023-01-19T15:11:24.694Z,4.37
2023-01-19T15:13:51.972Z,4.70
2023-01-19T15:16:19.776Z,5.23
2023-01-19T15:18:47.083Z,4.43
2023-01-19T15:21:28.819Z,4.03
2023-01-19T15:23:56.192Z,5.07
2023-01-19T15:26:27.610Z,3.90
2023-01-19T15:28:56.455Z,8.90
2023-01-19T15:31:25.820Z,4.77
2023-01-19T15:33:53.130Z,6.27
2023-01-19T15:36:22.089Z,4.50
2023-01-19T15:38:51.403Z,4.13
2023-01-19T15:41:27.528Z,4.90
2023-01-19T15:43:54.769Z,4.20
2023-01-19T15:46:25.224Z,5.83
2023-01-19T15:48:53.481Z,4.80
2023-01-19T15:51:22.566Z,6.77
2023-01-19T15:53:50.562Z,31.13
2023-01-19T15:56:21.026Z,6.20
2023-01-19T15:58:48.241Z,6.70
2023-01-19T16:01:17.626Z,5.27
2023-01-19T16:03:45.916Z,8.10
2023-01-19T16:06:13.798Z,8.60
2023-01-19T16:08:41.114Z,5.43
2023-01-19T16:11:11.419Z,6.20
2023-01-19T16:13:39.528Z,6.00
2023-01-19T16:16:12.864Z,6.90
2023-01-19T16:18:40.060Z,6.77
2023-01-19T16:21:07.213Z,7.17
2023-01-19T16:23:35.247Z,8.33
2023-01-19T16:26:07.756Z,7.20
2023-01-19T16:28:37.429Z,7.40
2023-01-19T16:31:04.887Z,6.47
2023-01-19T16:33:32.179Z,6.80
2023-01-19T16:35:59.447Z,7.80
2023-01-19T16:38:26.650Z,7.20
2023-01-19T16:40:53.822Z,6.23
2023-01-19T16:43:20.994Z,6.10
2023-01-19T16:45:57.109Z,6.13
2023-01-19T16:48:25.615Z,12.23
2023-01-19T16:50:59.931Z,7.73
2023-01-19T16:53:28.557Z,7.53
2023-01-19T16:55:56.121Z,8.60
2023-01-19T16:58:28.511Z,8.97
2023-01-19T17:00:55.763Z,7.53
2023-01-19T17:03:22.993Z,7.60
2023-01-19T17:05:52.117Z,8.37
2023-01-19T17:08:20.366Z,6.80
2023-01-19T17:10:47.962Z,26.70
2023-01-19T17:13:15.178Z,18.63
2023-01-19T17:15:43.119Z,24.70
2023-01-19T17:18:10.333Z,16.50
2023-01-19T17:20:37.655Z,7.93
2023-01-19T17:23:04.932Z,14.17
2023-01-19T17:25:32.132Z,9.40
2023-01-19T17:28:01.160Z,6.77
2023-01-19T17:30:28.489Z,16.47
2023-01-19T17:32:55.749Z,17.27
2023-01-19T17:35:22.887Z,8.93
2023-01-19T17:37:53.759Z,9.50
2023-01-19T17:40:20.979Z,9.20
2023-01-19T17:42:48.331Z,8.67
2023-01-19T17:45:15.659Z,13.17
2023-01-19T17:47:42.795Z,8.40
2023-01-19T17:50:10.675Z,9.80
2023-01-19T17:52:38.059Z,7.50
2023-01-19T17:55:05.641Z,6.97
2023-01-19T17:57:33.126Z,11.73
2023-01-19T18:00:00.341Z,8.90
2023-01-19T18:02:27.607Z,7.33
2023-01-19T18:04:56.147Z,7.63
2023-01-19T18:07:23.304Z,7.07
2023-01-19T18:09:51.610Z,8.93
2023-01-19T18:12:19.811Z,7.20
2023-01-19T18:14:46.948Z,13.47
2023-01-19T18:17:14.084Z,6.57
2023-01-19T18:19:41.241Z,10.53
2023-01-19T18:22:09.755Z,10.57
2023-01-19T18:24:36.983Z,7.00
2023-01-19T18:27:04.179Z,8.73
2023-01-19T18:29:31.436Z,8.73
2023-01-19T18:31:58.602Z,6.93
2023-01-19T18:34:25.763Z,9.87
2023-01-19T18:36:53.049Z,10.50
2023-01-19T18:39:20.269Z,8.53
2023-01-19T18:41:47.468Z,10.57
2023-01-19T18:44:14.663Z,10.63
2023-01-19T18:46:41.965Z,9.63
2023-01-19T18:49:09.687Z,9.40
2023-01-19T18:51:37.510Z,7.97
2023-01-19T18:54:04.795Z,10.00
2023-01-19T18:56:32.030Z,11.80
2023-01-19T18:58:59.355Z,9.90
2023-01-19T19:01:32.603Z,9.67
2023-01-19T19:04:00.252Z,9.77
2023-01-19T19:06:27.948Z,11.03
2023-01-19T19:08:57.501Z,12.93
2023-01-19T19:11:25.355Z,10.00
2023-01-19T19:13:54.372Z,10.30
2023-01-19T19:16:21.635Z,11.13
2023-01-19T19:18:51.930Z,9.63
2023-01-19T19:21:20.714Z,11.00
2023-01-19T19:23:55.817Z,11.33
2023-01-19T19:26:26.192Z,10.97
2023-01-19T19:28:53.660Z,8.83
2023-01-19T19:31:22.892Z,10.13
2023-01-19T19:33:51.706Z,10.53
2023-01-19T19:36:21.161Z,9.50
2023-01-19T19:38:49.582Z,8.47
2023-01-19T19:41:22.983Z,9.30
2023-01-19T19:43:50.867Z,8.37
2023-01-19T19:46:20.126Z,8.50
2023-01-19T19:48:48.629Z,10.27
2023-01-19T19:51:27.257Z,8.07
2023-01-19T19:53:57.419Z,10.53
2023-01-19T19:56:25.957Z,8.40
2023-01-19T19:58:55.105Z,11.93
2023-01-19T20:01:27.575Z,9.53
2023-01-19T20:03:57.178Z,11.10
2023-01-19T20:06:25.469Z,9.20
2023-01-19T20:08:55.054Z,9.57
2023-01-19T20:11:25.540Z,8.67
2023-01-19T20:13:53.148Z,9.13
2023-01-19T20:16:22.646Z,8.83
2023-01-19T20:18:53.780Z,8.80
2023-01-19T20:21:27.791Z,11.57
2023-01-19T20:23:56.456Z,9.60
2023-01-19T20:26:26.572Z,10.27
2023-01-19T20:28:56.494Z,9.63
2023-01-19T20:31:26.924Z,8.80
2023-01-19T20:33:56.601Z,10.63
2023-01-19T20:36:24.554Z,11.10
2023-01-19T20:38:53.555Z,13.20
2023-01-19T20:41:22.302Z,12.47
2023-01-19T20:43:50.247Z,11.33
2023-01-19T20:46:18.375Z,12.30
2023-01-19T20:48:50.657Z,10.53
2023-01-19T20:51:18.911Z,14.03
2023-01-19T20:53:47.107Z,10.40
2023-01-19T20:56:14.827Z,13.03
2023-01-19T20:58:42.321Z,12.57
2023-01-19T21:01:18.160Z,12.10
2023-01-19T21:03:45.735Z,14.50
2023-01-19T21:06:13.421Z,18.13
2023-01-19T21:08:40.992Z,23.33
2023-01-19T21:11:08.952Z,21.00
2023-01-19T21:13:36.986Z,20.17
2023-01-19T21:16:04.714Z,24.93
2023-01-19T21:18:31.945Z,23.60
2023-01-19T21:20:59.499Z,24.10
2023-01-19T21:23:27.545Z,27.33
2023-01-19T21:25:57.091Z,26.53
2023-01-19T21:28:25.643Z,28.90
2023-01-19T21:30:54.036Z,29.93
2023-01-19T21:33:22.249Z,33.70
2023-01-19T21:35:58.704Z,26.70
2023-01-19T21:38:27.920Z,21.00
2023-01-19T21:40:56.759Z,21.77
2023-01-19T21:43:25.351Z,18.17
2023-01-19T21:45:52.590Z,19.63
2023-01-19T21:48:19.888Z,15.77
2023-01-19T21:50:56.594Z,16.97
2023-01-19T21:53:23.770Z,14.97
2023-01-19T21:55:50.933Z,13.70
2023-01-19T21:58:18.128Z,12.37
2023-01-19T22:00:45.436Z,9.13
2023-01-19T22:03:12.689Z,11.20
2023-01-19T22:05:39.866Z,10.53
2023-01-19T22:08:07.267Z,8.53
2023-01-19T22:10:37.604Z,9.37
2023-01-19T22:13:06.566Z,10.40
2023-01-19T22:15:33.920Z,8.43
2023-01-19T22:18:01.178Z,7.77
2023-01-19T22:20:28.427Z,9.40
2023-01-19T22:22:56.661Z,9.90
2023-01-19T22:25:27.659Z,8.00
2023-01-19T22:27:56.091Z,7.70
2023-01-19T22:30:23.379Z,9.47
2023-01-19T22:32:50.588Z,9.80
2023-01-19T22:35:17.875Z,10.67
2023-01-19T22:37:45.045Z,10.97
2023-01-19T22:40:12.519Z,9.77
2023-01-19T22:42:39.730Z,10.43
2023-01-19T22:45:07.599Z,12.60
2023-01-19T22:47:34.829Z,10.20
2023-01-19T22:50:02.136Z,9.53
2023-01-19T22:52:29.303Z,9.60
2023-01-19T22:54:58.125Z,9.70
2023-01-19T22:57:25.305Z,9.83
2023-01-19T22:59:52.479Z,9.90
2023-01-19T23:02:21.067Z,11.30
2023-01-19T23:04:48.399Z,10.90
2023-01-19T23:07:15.622Z,9.20
2023-01-19T23:09:42.823Z,11.30
2023-01-19T23:12:10.003Z,10.63
2023-01-19T23:14:37.249Z,9.63
2023-01-19T23:17:04.482Z,8.93
2023-01-19T23:19:31.706Z,9.83
2023-01-19T23:21:58.874Z,8.27
2023-01-19T23:24:26.213Z,9.37
2023-01-19T23:26:53.395Z,9.07
2023-01-19T23:29:20.666Z,8.83
2023-01-19T23:31:49.468Z,9.27
2023-01-19T23:34:16.907Z,9.63
2023-01-19T23:36:44.763Z,9.43
2023-01-19T23:39:21.074Z,10.57
2023-01-19T23:41:49.402Z,8.10
2023-01-19T23:44:17.199Z,12.13
2023-01-19T23:46:44.962Z,9.63
2023-01-19T23:49:13.318Z,9.93
2023-01-19T23:51:41.204Z,11.30
2023-01-19T23:54:08.665Z,9.60
2023-01-19T23:56:37.320Z,8.27
2023-01-19T23:59:10.483Z,10.90
